createdAt,value
2023-03-27T00:01:58.258Z,98343.97
2023-03-27T00:04:27.222Z,98342.28
2023-03-27T00:06:56.013Z,98354.25
2023-03-27T00:09:24.884Z,98350.19
2023-03-27T00:11:53.684Z,98350.28
2023-03-27T00:14:22.893Z,98357.25
2023-03-27T00:16:51.947Z,98353.03
2023-03-27T00:19:20.951Z,98355.72
2023-03-27T00:21:49.696Z,98359.09
2023-03-27T00:24:18.833Z,98361.78
2023-03-27T00:26:47.563Z,98361.88
2023-03-27T00:29:16.588Z,98356.69
2023-03-27T00:31:45.419Z,98353.13
2023-03-27T00:34:14.625Z,98362.53
2023-03-27T00:36:44.631Z,98364.47
2023-03-27T00:39:14.270Z,98359.31
2023-03-27T00:41:43.569Z,98362.00
2023-03-27T00:44:28.303Z,98370.50
2023-03-27T00:46:58.116Z,98362.91
2023-03-27T00:49:30.466Z,98368.91
2023-03-27T00:52:00.837Z,98375.91
2023-03-27T00:54:35.734Z,98368.19
2023-03-27T00:57:10.197Z,98381.06
2023-03-27T00:59:43.339Z,98374.19
2023-03-27T01:02:16.741Z,98377.75
2023-03-27T01:04:51.028Z,98381.22
2023-03-27T01:07:23.304Z,98380.53
2023-03-27T01:09:54.550Z,98379.69
2023-03-27T01:12:48.139Z,98379.50
2023-03-27T01:15:49.589Z,98383.84
2023-03-27T01:18:46.994Z,98387.22
2023-03-27T01:21:35.607Z,98388.22
2023-03-27T01:24:20.533Z,98388.13
2023-03-27T01:26:53.966Z,98396.88
2023-03-27T01:29:33.039Z,98390.69
2023-03-27T01:32:33.079Z,98391.53
2023-03-27T01:35:26.168Z,98400.00
2023-03-27T01:38:07.070Z,98400.75
2023-03-27T01:41:00.207Z,98398.25
2023-03-27T01:43:54.313Z,98405.97
2023-03-27T01:46:43.906Z,98407.38
2023-03-27T01:49:31.106Z,98418.44
2023-03-27T01:52:11.050Z,98417.25
2023-03-27T01:54:52.035Z,98423.00
2023-03-27T01:57:36.879Z,98419.34
2023-03-27T02:00:25.355Z,98423.63
2023-03-27T02:03:21.657Z,98426.75
2023-03-27T02:06:16.794Z,98437.75
2023-03-27T02:09:22.680Z,98439.16
2023-03-27T02:12:09.716Z,98444.38
2023-03-27T02:14:51.044Z,98438.25
2023-03-27T02:17:27.105Z,98442.97
2023-03-27T02:20:03.532Z,98448.97
2023-03-27T02:22:37.661Z,98455.53
2023-03-27T02:25:27.715Z,98458.63
2023-03-27T02:28:38.204Z,98462.63
2023-03-27T02:31:34.102Z,98461.59
2023-03-27T02:34:58.014Z,98473.28
2023-03-27T02:37:39.305Z,98472.81
2023-03-27T02:40:45.988Z,98473.75
2023-03-27T02:44:09.491Z,98474.31
2023-03-27T02:47:14.014Z,98472.16
2023-03-27T02:49:50.025Z,98478.66
2023-03-27T02:52:32.258Z,98478.34
2023-03-27T02:55:07.873Z,98484.56
2023-03-27T02:57:40.220Z,98484.19
2023-03-27T03:00:34.801Z,98489.78
2023-03-27T03:03:28.726Z,98487.94
2023-03-27T03:06:08.168Z,98492.03
2023-03-27T03:08:39.409Z,98494.56
2023-03-27T03:11:14.348Z,98496.66
2023-03-27T03:13:43.518Z,98497.44
2023-03-27T03:16:12.473Z,98498.03
2023-03-27T03:18:41.800Z,98509.28
2023-03-27T03:21:10.684Z,98513.00
2023-03-27T03:23:40.200Z,98517.28
2023-03-27T03:26:09.637Z,98518.59
2023-03-27T03:29:00.852Z,98519.88
2023-03-27T03:31:44.202Z,98518.47
2023-03-27T03:34:23.438Z,98531.09
2023-03-27T03:36:56.137Z,98528.66
2023-03-27T03:39:31.039Z,98529.00
2023-03-27T03:42:00.028Z,98525.75
2023-03-27T03:44:28.879Z,98532.94
2023-03-27T03:46:59.181Z,98535.41
2023-03-27T03:49:28.171Z,98535.41
2023-03-27T03:52:03.627Z,98541.84
2023-03-27T03:54:34.677Z,98550.06
2023-03-27T03:57:04.143Z,98543.50
2023-03-27T03:59:35.183Z,98545.34
2023-03-27T04:02:30.370Z,98547.09
2023-03-27T04:05:09.528Z,98544.94
2023-03-27T04:07:41.823Z,98544.84
2023-03-27T04:10:30.639Z,98549.88
2023-03-27T04:13:01.835Z,98551.94
2023-03-27T04:15:38.657Z,98549.06
2023-03-27T04:18:31.195Z,98555.44
2023-03-27T04:21:03.443Z,98549.19
2023-03-27T04:23:32.517Z,98556.88
2023-03-27T04:26:04.838Z,98558.59
2023-03-27T04:29:03.268Z,98556.72
2023-03-27T04:32:07.388Z,98572.81
2023-03-27T04:34:42.995Z,98575.53
2023-03-27T04:37:32.245Z,98570.09
2023-03-27T04:40:18.849Z,98573.19
2023-03-27T04:42:48.028Z,98579.41
2023-03-27T04:45:21.109Z,98583.84
2023-03-27T04:47:52.498Z,98593.13
2023-03-27T04:50:22.506Z,98580.66
2023-03-27T04:52:52.841Z,98587.91
2023-03-27T04:55:26.705Z,98582.06
2023-03-27T04:57:58.393Z,98583.47
2023-03-27T05:00:28.729Z,98584.06
2023-03-27T05:03:30.057Z,98582.16
2023-03-27T05:06:09.421Z,98595.38
2023-03-27T05:08:39.247Z,98598.84
2023-03-27T05:11:08.752Z,98593.00
2023-03-27T05:13:42.701Z,98598.94
2023-03-27T05:16:13.243Z,98602.88
2023-03-27T05:18:46.971Z,98597.56
2023-03-27T05:21:15.870Z,98601.50
2023-03-27T05:23:44.944Z,98602.34
2023-03-27T05:26:14.149Z,98609.88
2023-03-27T05:28:52.225Z,98610.13
2023-03-27T05:31:21.413Z,98614.94
2023-03-27T05:33:56.579Z,98613.09
2023-03-27T05:36:29.448Z,98612.94
2023-03-27T05:38:59.524Z,98609.03
2023-03-27T05:41:42.203Z,98611.06
2023-03-27T05:44:11.396Z,98609.44
2023-03-27T05:46:43.646Z,98611.50
2023-03-27T05:49:18.841Z,98602.44
2023-03-27T05:51:53.642Z,98607.94
2023-03-27T05:54:22.871Z,98605.78
2023-03-27T05:56:57.482Z,98603.94
2023-03-27T05:59:27.477Z,98602.91
2023-03-27T06:02:02.864Z,98594.84
2023-03-27T06:04:46.081Z,98598.81
2023-03-27T06:07:27.693Z,98595.16
2023-03-27T06:10:02.481Z,98589.38
2023-03-27T06:12:31.436Z,98585.81
2023-03-27T06:15:12.412Z,98589.59
2023-03-27T06:17:49.266Z,98586.47
2023-03-27T06:20:20.947Z,98574.75
2023-03-27T06:23:04.572Z,98576.63
2023-03-27T06:25:39.812Z,98575.63
2023-03-27T06:28:12.460Z,98569.78
2023-03-27T06:30:50.893Z,98566.31
2023-03-27T06:33:33.943Z,98559.91
2023-03-27T06:36:07.007Z,98559.97
2023-03-27T06:38:38.490Z,98556.97
2023-03-27T06:41:07.606Z,98550.78
2023-03-27T06:44:09.089Z,98561.09
2023-03-27T06:47:03.288Z,98550.97
2023-03-27T06:49:48.790Z,98550.75
2023-03-27T06:52:23.222Z,98542.50
2023-03-27T06:54:53.942Z,98542.69
2023-03-27T06:57:23.128Z,98541.97
2023-03-27T06:59:58.112Z,98548.16
2023-03-27T07:02:58.914Z,98537.63
2023-03-27T07:05:49.868Z,98540.59
2023-03-27T07:08:24.485Z,98538.25
2023-03-27T07:11:10.678Z,98536.31
2023-03-27T07:13:54.374Z,98539.13
2023-03-27T07:16:28.051Z,98532.00
2023-03-27T07:19:01.204Z,98525.53
2023-03-27T07:21:33.189Z,98515.28
2023-03-27T07:24:02.673Z,98517.63
2023-03-27T07:26:37.851Z,98515.72
2023-03-27T07:29:23.196Z,98505.06
2023-03-27T07:31:58.911Z,98497.69
2023-03-27T07:34:35.992Z,98494.44
2023-03-27T07:37:07.844Z,98495.97
2023-03-27T07:39:39.892Z,98496.03
2023-03-27T07:42:11.992Z,98485.72
2023-03-27T07:45:01.360Z,98484.44
2023-03-27T07:47:33.514Z,98486.69
2023-03-27T07:50:13.746Z,98487.84
2023-03-27T07:52:48.414Z,98484.84
2023-03-27T07:55:19.871Z,98480.66
2023-03-27T07:58:03.216Z,98484.28
2023-03-27T08:00:40.797Z,98473.75
2023-03-27T08:03:16.167Z,98474.31
2023-03-27T08:06:00.964Z,98467.34
2023-03-27T08:08:34.052Z,98474.84
2023-03-27T08:11:06.192Z,98469.00
2023-03-27T08:13:41.116Z,98462.81
2023-03-27T08:16:15.868Z,98465.91
2023-03-27T08:18:48.001Z,98471.91
2023-03-27T08:21:18.436Z,98465.22
2023-03-27T08:23:51.723Z,98454.50
2023-03-27T08:26:30.068Z,98452.28
2023-03-27T08:29:03.014Z,98456.25
2023-03-27T08:31:34.412Z,98444.19
2023-03-27T08:34:05.941Z,98442.13
2023-03-27T08:37:00.752Z,98433.53
2023-03-27T08:39:49.722Z,98425.78
2023-03-27T08:42:30.921Z,98423.19
2023-03-27T08:45:21.924Z,98419.19
2023-03-27T08:48:03.779Z,98415.03
2023-03-27T08:50:38.932Z,98414.97
2023-03-27T08:53:33.926Z,98407.50
2023-03-27T08:56:06.150Z,98403.84
2023-03-27T08:58:40.237Z,98403.38
2023-03-27T09:01:41.988Z,98387.94
2023-03-27T09:04:37.544Z,98388.88
2023-03-27T09:07:33.978Z,98392.81
2023-03-27T09:10:16.250Z,98372.72
2023-03-27T09:13:05.696Z,98372.50
2023-03-27T09:15:42.986Z,98366.19
2023-03-27T09:18:22.322Z,98365.28
2023-03-27T09:21:04.518Z,98360.72
2023-03-27T09:23:55.406Z,98357.56
2023-03-27T09:27:06.707Z,98355.03
2023-03-27T09:29:50.858Z,98337.72
2023-03-27T09:32:45.925Z,98344.06
2023-03-27T09:35:16.523Z,98340.72
2023-03-27T09:37:47.548Z,98335.69
2023-03-27T09:40:44.081Z,98328.31
2023-03-27T09:43:24.590Z,98321.19
2023-03-27T09:45:56.076Z,98310.88
2023-03-27T09:48:58.372Z,98308.97
2023-03-27T09:51:37.390Z,98305.47
2023-03-27T09:54:08.959Z,98300.13
2023-03-27T09:56:45.454Z,98291.19
2023-03-27T09:59:59.595Z,98284.56
2023-03-27T10:02:32.041Z,98279.38
2023-03-27T10:05:23.009Z,98274.75
2023-03-27T10:07:56.491Z,98282.81
2023-03-27T10:10:46.669Z,98275.22
2023-03-27T10:13:30.695Z,98266.78
2023-03-27T10:16:07.942Z,98271.66
2023-03-27T10:18:58.345Z,98261.19
2023-03-27T10:21:40.460Z,98270.00
2023-03-27T10:24:19.394Z,98268.53
2023-03-27T10:27:24.321Z,98268.06
2023-03-27T10:30:34.476Z,98273.94
2023-03-27T10:33:43.312Z,98271.56
2023-03-27T10:36:48.048Z,98277.94
2023-03-27T10:39:21.749Z,98278.28
2023-03-27T10:42:14.651Z,98273.53
2023-03-27T10:44:50.151Z,98271.19
2023-03-27T10:47:33.886Z,98275.00
2023-03-27T10:50:34.565Z,98265.44
2023-03-27T10:53:21.831Z,98258.59
2023-03-27T10:56:06.994Z,98255.66
2023-03-27T10:58:48.652Z,98261.00
2023-03-27T11:01:45.757Z,98256.69
2023-03-27T11:04:39.441Z,98262.50
2023-03-27T11:07:18.828Z,98263.13
2023-03-27T11:10:03.971Z,98256.66
2023-03-27T11:12:38.936Z,98253.53
2023-03-27T11:15:27.299Z,98248.69
2023-03-27T11:18:04.071Z,98254.88
2023-03-27T11:20:53.465Z,98254.94
2023-03-27T11:23:39.458Z,98253.47
2023-03-27T11:26:37.758Z,98252.53
2023-03-27T11:29:36.702Z,98259.41
2023-03-27T11:32:20.902Z,98254.66
2023-03-27T11:35:03.940Z,98258.22
2023-03-27T11:37:57.296Z,98256.88
2023-03-27T11:40:50.368Z,98260.84
2023-03-27T11:43:21.309Z,98261.00
2023-03-27T11:46:29.807Z,98263.63
2023-03-27T11:49:27.197Z,98268.34
2023-03-27T11:52:27.947Z,98271.41
2023-03-27T11:55:18.325Z,98282.88
2023-03-27T11:58:01.121Z,98272.56
2023-03-27T12:01:09.022Z,98282.53
2023-03-27T12:04:15.039Z,98279.25
2023-03-27T12:07:04.918Z,98290.94
2023-03-27T12:10:07.171Z,98288.41
2023-03-27T12:13:42.222Z,98292.75
2023-03-27T12:16:23.233Z,98291.69
2023-03-27T12:19:38.486Z,98287.69
2023-03-27T12:22:43.216Z,98291.63
2023-03-27T12:25:29.335Z,98293.78
2023-03-27T12:28:25.095Z,98294.88
2023-03-27T12:31:42.946Z,98292.84
2023-03-27T12:34:33.162Z,98287.38
2023-03-27T12:37:04.639Z,98295.69
2023-03-27T12:39:44.949Z,98299.63
2023-03-27T12:42:16.391Z,98311.28
2023-03-27T12:45:15.360Z,98318.81
2023-03-27T12:48:08.944Z,98329.50
2023-03-27T12:50:56.602Z,98316.72
2023-03-27T12:53:27.728Z,98327.06
2023-03-27T12:56:20.398Z,98320.47
2023-03-27T12:58:54.001Z,98318.19
2023-03-27T13:01:51.616Z,98320.31
2023-03-27T13:04:47.704Z,98316.69
2023-03-27T13:07:37.698Z,98316.78
2023-03-27T13:10:28.307Z,98318.34
2023-03-27T13:13:10.136Z,98319.00
2023-03-27T13:15:44.875Z,98321.47
2023-03-27T13:19:00.482Z,98310.00
2023-03-27T13:21:46.825Z,98310.06
2023-03-27T13:24:38.893Z,98313.38
2023-03-27T13:27:34.027Z,98320.28
2023-03-27T13:30:04.847Z,98323.25
2023-03-27T13:33:25.084Z,98326.31
2023-03-27T13:36:01.129Z,98324.94
2023-03-27T13:39:16.132Z,98327.00
2023-03-27T13:42:23.878Z,98342.34
2023-03-27T13:45:07.049Z,98350.97
2023-03-27T13:48:05.399Z,98342.34
2023-03-27T13:50:55.837Z,98347.16
2023-03-27T13:53:52.818Z,98345.72
2023-03-27T13:56:53.189Z,98350.63
2023-03-27T14:00:11.192Z,98345.72
2023-03-27T14:02:54.695Z,98342.72
2023-03-27T14:06:04.120Z,98346.25
2023-03-27T14:09:01.189Z,98342.44
2023-03-27T14:12:03.497Z,98340.41
2023-03-27T14:15:16.989Z,98338.47
2023-03-27T14:18:27.895Z,98351.75
2023-03-27T14:21:04.977Z,98360.34
2023-03-27T14:23:53.353Z,98362.72
2023-03-27T14:26:36.410Z,98368.34
2023-03-27T14:29:06.028Z,98369.47
2023-03-27T14:31:45.078Z,98374.50
2023-03-27T14:34:25.759Z,98378.25
2023-03-27T14:37:31.468Z,98377.47
2023-03-27T14:40:21.899Z,98383.88
2023-03-27T14:42:53.533Z,98372.25
2023-03-27T14:45:28.236Z,98368.88
2023-03-27T14:48:03.827Z,98371.66
2023-03-27T14:50:43.562Z,98376.34
2023-03-27T14:53:18.201Z,98365.97
2023-03-27T14:56:17.068Z,98374.81
2023-03-27T14:59:18.915Z,98374.22
2023-03-27T15:01:55.816Z,98378.25
2023-03-27T15:04:28.092Z,98376.66
2023-03-27T15:07:16.373Z,98370.50
2023-03-27T15:10:07.306Z,98372.41
2023-03-27T15:12:55.353Z,98373.16
2023-03-27T15:15:41.022Z,98379.94
2023-03-27T15:18:26.777Z,98381.09
2023-03-27T15:20:57.900Z,98389.31
2023-03-27T15:23:31.556Z,98390.69
2023-03-27T15:26:10.644Z,98385.94
2023-03-27T15:28:59.512Z,98387.00
2023-03-27T15:31:31.032Z,98391.88
2023-03-27T15:34:11.561Z,98388.38
2023-03-27T15:36:44.036Z,98384.44
2023-03-27T15:39:22.651Z,98386.97
2023-03-27T15:41:54.066Z,98386.50
2023-03-27T15:44:26.803Z,98386.72
2023-03-27T15:46:57.174Z,98386.41
2023-03-27T15:49:38.851Z,98385.84
2023-03-27T15:52:33.264Z,98391.06
2023-03-27T15:55:04.038Z,98389.94
2023-03-27T15:57:33.190Z,98386.69
2023-03-27T16:00:09.696Z,98388.38
2023-03-27T16:02:42.037Z,98393.13
2023-03-27T16:05:19.262Z,98391.97
2023-03-27T16:07:49.973Z,98402.63
2023-03-27T16:10:34.885Z,98400.94
2023-03-27T16:13:07.338Z,98411.81
2023-03-27T16:15:43.435Z,98411.72
2023-03-27T16:18:25.438Z,98413.63
2023-03-27T16:20:54.707Z,98406.28
2023-03-27T16:23:23.715Z,98408.19
2023-03-27T16:25:52.565Z,98403.09
2023-03-27T16:28:21.364Z,98400.59
2023-03-27T16:30:50.787Z,98394.56
2023-03-27T16:33:23.398Z,98395.28
2023-03-27T16:35:53.129Z,98398.13
2023-03-27T16:38:22.556Z,98397.41
2023-03-27T16:40:51.830Z,98396.59
2023-03-27T16:43:20.519Z,98407.13
2023-03-27T16:45:49.882Z,98405.44
2023-03-27T16:48:18.616Z,98401.19
2023-03-27T16:50:47.635Z,98406.56
2023-03-27T16:53:16.404Z,98402.19
2023-03-27T16:55:45.712Z,98404.94
2023-03-27T16:58:15.057Z,98406.78
2023-03-27T17:00:44.064Z,98407.84
2023-03-27T17:03:13.147Z,98402.53
2023-03-27T17:05:44.948Z,98401.84
2023-03-27T17:08:17.286Z,98398.44
2023-03-27T17:10:46.355Z,98396.13
2023-03-27T17:13:15.104Z,98395.97
2023-03-27T17:15:44.304Z,98390.94
2023-03-27T17:18:13.298Z,98395.66
2023-03-27T17:20:42.766Z,98401.72
2023-03-27T17:23:12.840Z,98406.00
2023-03-27T17:25:43.225Z,98402.78
2023-03-27T17:28:12.934Z,98410.59
2023-03-27T17:30:56.603Z,98401.78
2023-03-27T17:33:30.748Z,98404.94
2023-03-27T17:35:59.753Z,98397.25
2023-03-27T17:38:29.166Z,98403.44
2023-03-27T17:40:58.859Z,98400.81
2023-03-27T17:43:28.666Z,98397.56
2023-03-27T17:45:57.694Z,98389.88
2023-03-27T17:48:27.108Z,98400.41
2023-03-27T17:51:08.054Z,98398.97
2023-03-27T17:53:39.612Z,98405.91
2023-03-27T17:56:09.268Z,98409.53
2023-03-27T17:58:38.423Z,98415.72
2023-03-27T18:01:20.644Z,98409.53
2023-03-27T18:03:50.261Z,98410.56
2023-03-27T18:06:19.788Z,98416.66
2023-03-27T18:08:48.788Z,98404.53
2023-03-27T18:11:17.897Z,98402.84
2023-03-27T18:13:52.246Z,98401.03
2023-03-27T18:16:22.591Z,98410.56
2023-03-27T18:18:53.584Z,98407.31
2023-03-27T18:21:23.019Z,98402.38
2023-03-27T18:23:53.857Z,98400.66
2023-03-27T18:26:23.074Z,98406.00
2023-03-27T18:28:53.231Z,98404.50
2023-03-27T18:31:22.243Z,98394.13
2023-03-27T18:33:51.148Z,98406.34
2023-03-27T18:36:20.181Z,98395.38
2023-03-27T18:38:49.785Z,98392.88
2023-03-27T18:41:18.905Z,98399.00
2023-03-27T18:43:47.799Z,98392.94
2023-03-27T18:46:19.694Z,98391.38
2023-03-27T18:48:51.752Z,98400.94
2023-03-27T18:51:20.773Z,98394.88
2023-03-27T18:53:51.710Z,98393.88
2023-03-27T18:56:20.619Z,98397.66
2023-03-27T18:58:49.367Z,98392.56
2023-03-27T19:01:18.587Z,98394.41
2023-03-27T19:03:47.984Z,98405.78
2023-03-27T19:06:20.533Z,98403.13
2023-03-27T19:08:49.780Z,98407.47
2023-03-27T19:11:19.739Z,98407.47
2023-03-27T19:14:07.793Z,98400.47
2023-03-27T19:17:06.700Z,98395.31
2023-03-27T19:19:55.960Z,98396.19
2023-03-27T19:22:47.829Z,98397.19
2023-03-27T19:25:28.597Z,98388.59
2023-03-27T19:27:57.582Z,98387.75
2023-03-27T19:30:26.529Z,98392.03
2023-03-27T19:32:56.736Z,98384.25
2023-03-27T19:35:26.698Z,98385.19
2023-03-27T19:37:55.410Z,98385.31
2023-03-27T19:40:24.957Z,98385.38
2023-03-27T19:42:53.964Z,98382.91
2023-03-27T19:45:22.847Z,98374.28
2023-03-27T19:47:51.902Z,98382.06
2023-03-27T19:50:20.851Z,98378.72
2023-03-27T19:53:08.469Z,98375.63
2023-03-27T19:55:38.615Z,98366.81
2023-03-27T19:58:07.576Z,98365.22
2023-03-27T20:00:40.810Z,98361.06
2023-03-27T20:03:11.477Z,98354.03
2023-03-27T20:05:49.368Z,98357.25
2023-03-27T20:08:20.465Z,98347.09
2023-03-27T20:10:51.236Z,98345.38
2023-03-27T20:13:22.460Z,98344.16
2023-03-27T20:15:54.223Z,98335.06
2023-03-27T20:18:24.601Z,98336.13
2023-03-27T20:20:56.282Z,98330.47
2023-03-27T20:23:34.334Z,98323.00
2023-03-27T20:26:04.500Z,98321.97
2023-03-27T20:28:37.926Z,98319.34
2023-03-27T20:31:08.807Z,98321.84
2023-03-27T20:33:38.984Z,98318.41
2023-03-27T20:36:09.146Z,98323.81
2023-03-27T20:38:38.944Z,98317.75
2023-03-27T20:41:09.486Z,98318.59
2023-03-27T20:43:40.356Z,98318.72
2023-03-27T20:46:12.219Z,98319.66
2023-03-27T20:48:54.132Z,98316.91
2023-03-27T20:51:25.510Z,98325.84
2023-03-27T20:53:58.941Z,98318.97
2023-03-27T20:56:29.012Z,98321.66
2023-03-27T20:58:58.759Z,98325.22
2023-03-27T21:01:29.816Z,98320.03
2023-03-27T21:04:03.362Z,98318.44
2023-03-27T21:06:35.957Z,98311.81
2023-03-27T21:09:07.095Z,98307.38
2023-03-27T21:11:38.206Z,98312.63
2023-03-27T21:14:08.363Z,98310.09
2023-03-27T21:16:38.917Z,98305.16
2023-03-27T21:19:08.950Z,98311.19
2023-03-27T21:21:39.326Z,98302.81
2023-03-27T21:24:09.283Z,98303.69
2023-03-27T21:26:38.996Z,98296.78
2023-03-27T21:29:11.934Z,98294.16
2023-03-27T21:31:42.959Z,98291.41
2023-03-27T21:34:12.636Z,98289.78
2023-03-27T21:36:41.492Z,98290.78
2023-03-27T21:39:11.781Z,98284.78
2023-03-27T21:41:40.842Z,98283.22
2023-03-27T21:44:09.630Z,98277.31
2023-03-27T21:46:38.977Z,98270.41
2023-03-27T21:49:07.900Z,98270.63
2023-03-27T21:51:37.056Z,98268.06
2023-03-27T21:54:06.091Z,98273.38
2023-03-27T21:56:35.219Z,98277.94
2023-03-27T21:59:03.969Z,98271.09
2023-03-27T22:01:33.046Z,98268.63
2023-03-27T22:04:03.132Z,98272.97
2023-03-27T22:06:32.496Z,98272.06
2023-03-27T22:09:01.562Z,98279.00
2023-03-27T22:11:30.712Z,98270.44
2023-03-27T22:14:00.160Z,98274.78
2023-03-27T22:16:29.829Z,98267.00
2023-03-27T22:18:58.791Z,98260.13
2023-03-27T22:21:30.232Z,98258.34
2023-03-27T22:24:00.548Z,98249.75
2023-03-27T22:26:35.163Z,98249.47
2023-03-27T22:29:05.080Z,98249.53
2023-03-27T22:31:33.855Z,98242.88
2023-03-27T22:34:05.240Z,98246.31
2023-03-27T22:36:35.169Z,98241.06
2023-03-27T22:39:04.092Z,98233.53
2023-03-27T22:41:33.043Z,98240.56
2023-03-27T22:44:02.679Z,98241.50
2023-03-27T22:46:31.709Z,98239.94
2023-03-27T22:49:00.679Z,98236.44
2023-03-27T22:51:31.843Z,98237.31
2023-03-27T22:54:01.168Z,98240.94
2023-03-27T22:56:30.023Z,98237.59
2023-03-27T22:58:59.217Z,98242.88
2023-03-27T23:01:28.088Z,98241.16
2023-03-27T23:03:57.345Z,98242.16
2023-03-27T23:06:26.462Z,98239.63
2023-03-27T23:08:55.588Z,98242.16
2023-03-27T23:11:24.636Z,98243.09
2023-03-27T23:13:53.611Z,98244.94
2023-03-27T23:16:22.509Z,98243.19
2023-03-27T23:18:51.598Z,98244.19
2023-03-27T23:21:20.473Z,98241.66
2023-03-27T23:23:49.641Z,98244.19
2023-03-27T23:26:19.098Z,98242.38
2023-03-27T23:28:48.329Z,98245.06
2023-03-27T23:31:19.623Z,98254.47
2023-03-27T23:33:51.643Z,98259.66
2023-03-27T23:36:23.500Z,98257.00
2023-03-27T23:38:53.811Z,98263.03
2023-03-27T23:41:23.406Z,98258.72
2023-03-27T23:43:52.437Z,98262.94
2023-03-27T23:46:21.430Z,98263.84
2023-03-27T23:48:50.374Z,98262.16
2023-03-27T23:51:19.423Z,98267.47
2023-03-27T23:53:48.111Z,98270.06
2023-03-27T23:56:17.098Z,98268.34
2023-03-27T23:58:45.965Z,98267.50
